sensor_id;sensor_type;location;lat;lon;timestamp;temperature;humidity
52107;DHT22;38105;52.968;5.974;2023-02-21T00:01:15;8.90;99.90
52107;DHT22;38105;52.968;5.974;2023-02-21T00:03:59;8.90;99.90
52107;DHT22;38105;52.968;5.974;2023-02-21T00:06:44;8.80;99.90
52107;DHT22;38105;52.968;5.974;2023-02-21T00:09:28;8.50;99.90
52107;DHT22;38105;52.968;5.974;2023-02-21T00:12:12;9.00;99.90
52107;DHT22;38105;52.968;5.974;2023-02-21T00:14:57;8.90;99.90
52107;DHT22;38105;52.968;5.974;2023-02-21T00:17:41;8.60;99.90
52107;DHT22;38105;52.968;5.974;2023-02-21T00:20:26;8.90;99.90
52107;DHT22;38105;52.968;5.974;2023-02-21T00:23:10;8.90;99.90
52107;DHT22;38105;52.968;5.974;2023-02-21T00:25:54;8.70;99.90
52107;DHT22;38105;52.968;5.974;2023-02-21T00:28:39;8.70;99.90
52107;DHT22;38105;52.968;5.974;2023-02-21T00:31:23;8.80;99.90
52107;DHT22;38105;52.968;5.974;2023-02-21T00:34:08;8.70;99.90
52107;DHT22;38105;52.968;5.974;2023-02-21T00:36:52;8.50;99.90
52107;DHT22;38105;52.968;5.974;2023-02-21T00:39:37;8.70;99.90
52107;DHT22;38105;52.968;5.974;2023-02-21T00:42:21;9.00;99.90
52107;DHT22;38105;52.968;5.974;2023-02-21T00:45:06;8.90;99.90
52107;DHT22;38105;52.968;5.974;2023-02-21T00:47:51;8.90;99.90
52107;DHT22;38105;52.968;5.974;2023-02-21T00:50:35;8.70;99.90
52107;DHT22;38105;52.968;5.974;2023-02-21T00:53:23;8.50;99.90
52107;DHT22;38105;52.968;5.974;2023-02-21T00:56:07;8.70;99.90
52107;DHT22;38105;52.968;5.974;2023-02-21T00:58:51;8.70;99.90
52107;DHT22;38105;52.968;5.974;2023-02-21T01:01:36;8.70;99.90
52107;DHT22;38105;52.968;5.974;2023-02-21T01:04:20;8.90;99.90
52107;DHT22;38105;52.968;5.974;2023-02-21T01:07:04;9.10;99.90
52107;DHT22;38105;52.968;5.974;2023-02-21T01:09:49;8.60;99.90
52107;DHT22;38105;52.968;5.974;2023-02-21T01:12:33;9.10;99.90
52107;DHT22;38105;52.968;5.974;2023-02-21T01:15:17;8.90;99.90
52107;DHT22;38105;52.968;5.974;2023-02-21T01:18:02;9.00;99.90
52107;DHT22;38105;52.968;5.974;2023-02-21T01:20:46;8.80;99.90
52107;DHT22;38105;52.968;5.974;2023-02-21T01:23:31;8.80;99.90
52107;DHT22;38105;52.968;5.974;2023-02-21T01:26:15;9.10;99.90
52107;DHT22;38105;52.968;5.974;2023-02-21T01:28:59;9.20;99.90
52107;DHT22;38105;52.968;5.974;2023-02-21T01:31:43;8.90;99.90
52107;DHT22;38105;52.968;5.974;2023-02-21T01:34:28;9.20;99.90
52107;DHT22;38105;52.968;5.974;2023-02-21T01:37:12;9.30;99.90
52107;DHT22;38105;52.968;5.974;2023-02-21T01:39:57;9.30;99.90
52107;DHT22;38105;52.968;5.974;2023-02-21T01:42:41;9.30;99.90
52107;DHT22;38105;52.968;5.974;2023-02-21T01:48:19;9.20;99.90
52107;DHT22;38105;52.968;5.974;2023-02-21T01:51:06;9.00;99.90
52107;DHT22;38105;52.968;5.974;2023-02-21T01:53:52;9.40;99.90
52107;DHT22;38105;52.968;5.974;2023-02-21T01:56:37;9.20;99.90
52107;DHT22;38105;52.968;5.974;2023-02-21T01:59:22;9.20;99.90
52107;DHT22;38105;52.968;5.974;2023-02-21T02:02:28;9.10;99.90
52107;DHT22;38105;52.968;5.974;2023-02-21T02:05:14;9.30;99.90
52107;DHT22;38105;52.968;5.974;2023-02-21T02:07:58;9.10;99.90
52107;DHT22;38105;52.968;5.974;2023-02-21T02:10:43;9.10;99.90
52107;DHT22;38105;52.968;5.974;2023-02-21T02:13:58;9.10;99.90
52107;DHT22;38105;52.968;5.974;2023-02-21T02:19:27;9.20;99.90
52107;DHT22;38105;52.968;5.974;2023-02-21T02:36:39;9.10;99.90
52107;DHT22;38105;52.968;5.974;2023-02-21T02:39:27;8.80;99.90
52107;DHT22;38105;52.968;5.974;2023-02-21T02:44:34;8.70;99.90
52107;DHT22;38105;52.968;5.974;2023-02-21T02:47:04;8.80;99.90
52107;DHT22;38105;52.968;5.974;2023-02-21T02:49:33;9.10;99.90
52107;DHT22;38105;52.968;5.974;2023-02-21T02:52:06;9.10;99.90
52107;DHT22;38105;52.968;5.974;2023-02-21T02:54:32;9.10;99.90
52107;DHT22;38105;52.968;5.974;2023-02-21T02:56:59;8.80;99.90
52107;DHT22;38105;52.968;5.974;2023-02-21T02:59:28;9.20;99.90
52107;DHT22;38105;52.968;5.974;2023-02-21T03:13:04;8.80;99.90
52107;DHT22;38105;52.968;5.974;2023-02-21T03:18:11;9.10;99.90
52107;DHT22;38105;52.968;5.974;2023-02-21T03:20:41;8.90;99.90
52107;DHT22;38105;52.968;5.974;2023-02-21T03:23:08;8.80;99.90
52107;DHT22;38105;52.968;5.974;2023-02-21T03:25:36;8.80;99.90
52107;DHT22;38105;52.968;5.974;2023-02-21T03:28:03;9.20;99.90
52107;DHT22;38105;52.968;5.974;2023-02-21T03:30:29;8.80;99.90
52107;DHT22;38105;52.968;5.974;2023-02-21T03:32:56;8.80;99.90
52107;DHT22;38105;52.968;5.974;2023-02-21T03:35:23;8.90;99.90
52107;DHT22;38105;52.968;5.974;2023-02-21T03:37:51;8.80;99.90
52107;DHT22;38105;52.968;5.974;2023-02-21T03:40:24;9.20;99.90
52107;DHT22;38105;52.968;5.974;2023-02-21T03:42:51;9.10;99.90
52107;DHT22;38105;52.968;5.974;2023-02-21T03:45:17;8.90;99.90
52107;DHT22;38105;52.968;5.974;2023-02-21T03:47:43;8.80;99.90
52107;DHT22;38105;52.968;5.974;2023-02-21T03:50:08;8.80;99.90
52107;DHT22;38105;52.968;5.974;2023-02-21T03:52:34;9.20;99.90
52107;DHT22;38105;52.968;5.974;2023-02-21T03:55:00;9.10;99.90
52107;DHT22;38105;52.968;5.974;2023-02-21T03:57:25;9.20;99.90
52107;DHT22;38105;52.968;5.974;2023-02-21T03:59:51;9.20;99.90
52107;DHT22;38105;52.968;5.974;2023-02-21T04:02:17;9.00;99.90
52107;DHT22;38105;52.968;5.974;2023-02-21T04:04:43;8.70;99.90
52107;DHT22;38105;52.968;5.974;2023-02-21T04:07:10;8.80;99.90
52107;DHT22;38105;52.968;5.974;2023-02-21T04:09:36;9.00;99.90
52107;DHT22;38105;52.968;5.974;2023-02-21T04:12:03;8.90;99.90
52107;DHT22;38105;52.968;5.974;2023-02-21T04:14:29;8.90;99.90
52107;DHT22;38105;52.968;5.974;2023-02-21T04:16:55;8.80;99.90
52107;DHT22;38105;52.968;5.974;2023-02-21T04:19:21;8.80;99.90
52107;DHT22;38105;52.968;5.974;2023-02-21T04:21:46;9.20;99.90
52107;DHT22;38105;52.968;5.974;2023-02-21T04:24:12;8.90;99.90
52107;DHT22;38105;52.968;5.974;2023-02-21T04:26:38;9.00;99.90
52107;DHT22;38105;52.968;5.974;2023-02-21T04:29:04;9.00;99.90
52107;DHT22;38105;52.968;5.974;2023-02-21T04:31:30;8.90;99.90
52107;DHT22;38105;52.968;5.974;2023-02-21T04:33:57;9.20;99.90
52107;DHT22;38105;52.968;5.974;2023-02-21T04:36:23;8.80;99.90
52107;DHT22;38105;52.968;5.974;2023-02-21T04:38:49;8.70;99.90
52107;DHT22;38105;52.968;5.974;2023-02-21T04:41:15;8.90;99.90
52107;DHT22;38105;52.968;5.974;2023-02-21T04:43:42;9.10;99.90
52107;DHT22;38105;52.968;5.974;2023-02-21T04:46:09;8.80;99.90
52107;DHT22;38105;52.968;5.974;2023-02-21T04:48:35;9.00;99.90
52107;DHT22;38105;52.968;5.974;2023-02-21T04:51:00;9.10;99.90
52107;DHT22;38105;52.968;5.974;2023-02-21T04:53:26;8.70;99.90
52107;DHT22;38105;52.968;5.974;2023-02-21T04:55:51;8.70;99.90
52107;DHT22;38105;52.968;5.974;2023-02-21T04:58:17;8.80;99.90
52107;DHT22;38105;52.968;5.974;2023-02-21T05:00:43;8.80;99.90
52107;DHT22;38105;52.968;5.974;2023-02-21T05:03:08;9.20;99.90
52107;DHT22;38105;52.968;5.974;2023-02-21T05:05:34;9.10;99.90
52107;DHT22;38105;52.968;5.974;2023-02-21T05:07:59;9.00;99.90
52107;DHT22;38105;52.968;5.974;2023-02-21T05:10:25;8.90;99.90
52107;DHT22;38105;52.968;5.974;2023-02-21T05:12:51;8.80;99.90
52107;DHT22;38105;52.968;5.974;2023-02-21T05:15:16;9.00;99.90
52107;DHT22;38105;52.968;5.974;2023-02-21T05:17:42;8.80;99.90
52107;DHT22;38105;52.968;5.974;2023-02-21T05:20:08;8.90;99.90
52107;DHT22;38105;52.968;5.974;2023-02-21T05:22:40;8.80;99.90
52107;DHT22;38105;52.968;5.974;2023-02-21T05:25:17;9.10;99.90
52107;DHT22;38105;52.968;5.974;2023-02-21T05:27:43;9.00;99.90
52107;DHT22;38105;52.968;5.974;2023-02-21T05:30:10;8.70;99.90
52107;DHT22;38105;52.968;5.974;2023-02-21T05:32:36;9.10;99.90
52107;DHT22;38105;52.968;5.974;2023-02-21T05:35:02;9.10;99.90
52107;DHT22;38105;52.968;5.974;2023-02-21T05:37:27;9.10;99.90
52107;DHT22;38105;52.968;5.974;2023-02-21T05:39:53;9.10;99.90
52107;DHT22;38105;52.968;5.974;2023-02-21T05:42:19;8.70;99.90
52107;DHT22;38105;52.968;5.974;2023-02-21T05:44:45;8.90;99.90
52107;DHT22;38105;52.968;5.974;2023-02-21T05:47:12;8.80;99.90
52107;DHT22;38105;52.968;5.974;2023-02-21T05:49:38;8.70;99.90
52107;DHT22;38105;52.968;5.974;2023-02-21T05:52:04;9.10;99.90
52107;DHT22;38105;52.968;5.974;2023-02-21T05:54:30;9.10;99.90
52107;DHT22;38105;52.968;5.974;2023-02-21T05:56:56;9.00;99.90
52107;DHT22;38105;52.968;5.974;2023-02-21T05:59:22;9.20;99.90
52107;DHT22;38105;52.968;5.974;2023-02-21T06:01:48;9.00;99.90
52107;DHT22;38105;52.968;5.974;2023-02-21T06:04:15;9.20;99.90
52107;DHT22;38105;52.968;5.974;2023-02-21T06:06:41;9.10;99.90
52107;DHT22;38105;52.968;5.974;2023-02-21T06:09:07;9.00;99.90
52107;DHT22;38105;52.968;5.974;2023-02-21T06:11:34;8.90;99.90
52107;DHT22;38105;52.968;5.974;2023-02-21T06:14:03;8.70;99.90
52107;DHT22;38105;52.968;5.974;2023-02-21T06:16:33;9.00;99.90
52107;DHT22;38105;52.968;5.974;2023-02-21T06:18:59;9.00;99.90
52107;DHT22;38105;52.968;5.974;2023-02-21T06:21:25;8.70;99.90
52107;DHT22;38105;52.968;5.974;2023-02-21T06:23:51;8.80;99.90
52107;DHT22;38105;52.968;5.974;2023-02-21T06:26:17;8.80;99.90
52107;DHT22;38105;52.968;5.974;2023-02-21T06:28:43;9.10;99.90
52107;DHT22;38105;52.968;5.974;2023-02-21T06:31:10;9.10;99.90
52107;DHT22;38105;52.968;5.974;2023-02-21T06:33:35;8.80;99.90
52107;DHT22;38105;52.968;5.974;2023-02-21T06:36:06;8.70;99.90
52107;DHT22;38105;52.968;5.974;2023-02-21T06:38:33;8.90;99.90
52107;DHT22;38105;52.968;5.974;2023-02-21T06:40:59;9.10;99.90
52107;DHT22;38105;52.968;5.974;2023-02-21T06:43:25;8.80;99.90
52107;DHT22;38105;52.968;5.974;2023-02-21T06:45:50;9.10;99.90
52107;DHT22;38105;52.968;5.974;2023-02-21T06:48:16;9.00;99.90
52107;DHT22;38105;52.968;5.974;2023-02-21T06:50:42;8.90;99.90
52107;DHT22;38105;52.968;5.974;2023-02-21T06:53:08;9.10;99.90
52107;DHT22;38105;52.968;5.974;2023-02-21T06:55:34;9.10;99.90
52107;DHT22;38105;52.968;5.974;2023-02-21T06:57:59;9.00;99.90
52107;DHT22;38105;52.968;5.974;2023-02-21T07:00:25;8.70;99.90
52107;DHT22;38105;52.968;5.974;2023-02-21T07:02:53;8.80;99.90
52107;DHT22;38105;52.968;5.974;2023-02-21T07:05:19;8.70;99.90
52107;DHT22;38105;52.968;5.974;2023-02-21T07:07:45;9.10;99.90
52107;DHT22;38105;52.968;5.974;2023-02-21T07:10:11;9.10;99.90
52107;DHT22;38105;52.968;5.974;2023-02-21T07:12:38;8.90;99.90
52107;DHT22;38105;52.968;5.974;2023-02-21T07:15:04;8.90;99.90
52107;DHT22;38105;52.968;5.974;2023-02-21T07:17:30;8.80;99.90
52107;DHT22;38105;52.968;5.974;2023-02-21T07:19:55;8.90;99.90
52107;DHT22;38105;52.968;5.974;2023-02-21T07:22:21;9.10;99.90
52107;DHT22;38105;52.968;5.974;2023-02-21T07:24:51;9.10;99.90
52107;DHT22;38105;52.968;5.974;2023-02-21T07:27:18;9.10;99.90
52107;DHT22;38105;52.968;5.974;2023-02-21T07:29:49;9.20;99.90
52107;DHT22;38105;52.968;5.974;2023-02-21T07:32:15;8.90;99.90
52107;DHT22;38105;52.968;5.974;2023-02-21T07:34:41;9.00;99.90
52107;DHT22;38105;52.968;5.974;2023-02-21T07:37:08;9.00;99.90
52107;DHT22;38105;52.968;5.974;2023-02-21T07:39:34;9.30;99.90
52107;DHT22;38105;52.968;5.974;2023-02-21T07:42:00;9.00;99.90
52107;DHT22;38105;52.968;5.974;2023-02-21T07:44:25;9.00;99.90
52107;DHT22;38105;52.968;5.974;2023-02-21T07:46:51;9.30;99.90
52107;DHT22;38105;52.968;5.974;2023-02-21T07:49:17;9.20;99.90
52107;DHT22;38105;52.968;5.974;2023-02-21T07:51:42;9.30;99.90
52107;DHT22;38105;52.968;5.974;2023-02-21T07:54:08;9.40;99.90
52107;DHT22;38105;52.968;5.974;2023-02-21T07:56:34;9.40;99.90
52107;DHT22;38105;52.968;5.974;2023-02-21T07:58:59;9.30;99.90
52107;DHT22;38105;52.968;5.974;2023-02-21T08:01:26;9.10;99.90
52107;DHT22;38105;52.968;5.974;2023-02-21T08:03:52;9.40;99.90
52107;DHT22;38105;52.968;5.974;2023-02-21T08:06:18;9.40;99.90
52107;DHT22;38105;52.968;5.974;2023-02-21T08:08:44;9.40;99.90
52107;DHT22;38105;52.968;5.974;2023-02-21T08:11:10;9.20;99.90
52107;DHT22;38105;52.968;5.974;2023-02-21T08:13:35;9.30;99.90
52107;DHT22;38105;52.968;5.974;2023-02-21T08:16:01;9.40;99.90
52107;DHT22;38105;52.968;5.974;2023-02-21T08:18:27;9.20;99.90
52107;DHT22;38105;52.968;5.974;2023-02-21T08:20:54;9.30;99.90
52107;DHT22;38105;52.968;5.974;2023-02-21T08:23:21;9.30;99.90
52107;DHT22;38105;52.968;5.974;2023-02-21T08:25:48;9.40;99.90
52107;DHT22;38105;52.968;5.974;2023-02-21T08:28:14;9.60;99.90
52107;DHT22;38105;52.968;5.974;2023-02-21T08:30:40;9.60;99.90
52107;DHT22;38105;52.968;5.974;2023-02-21T08:33:06;9.50;99.90
52107;DHT22;38105;52.968;5.974;2023-02-21T08:35:31;9.70;99.90
52107;DHT22;38105;52.968;5.974;2023-02-21T08:37:57;9.50;99.90
52107;DHT22;38105;52.968;5.974;2023-02-21T08:40:28;9.60;99.90
52107;DHT22;38105;52.968;5.974;2023-02-21T08:42:54;9.50;99.90
52107;DHT22;38105;52.968;5.974;2023-02-21T08:45:21;9.50;99.90
52107;DHT22;38105;52.968;5.974;2023-02-21T08:47:47;9.80;99.90
52107;DHT22;38105;52.968;5.974;2023-02-21T08:50:13;9.80;99.90
52107;DHT22;38105;52.968;5.974;2023-02-21T08:52:39;9.80;99.90
52107;DHT22;38105;52.968;5.974;2023-02-21T08:55:05;9.60;99.90
52107;DHT22;38105;52.968;5.974;2023-02-21T08:57:31;9.60;99.90
52107;DHT22;38105;52.968;5.974;2023-02-21T08:59:59;9.80;99.90
52107;DHT22;38105;52.968;5.974;2023-02-21T09:02:25;9.90;99.90
52107;DHT22;38105;52.968;5.974;2023-02-21T09:04:53;10.00;99.90
52107;DHT22;38105;52.968;5.974;2023-02-21T09:07:20;9.80;99.90
52107;DHT22;38105;52.968;5.974;2023-02-21T09:09:46;9.90;99.90
52107;DHT22;38105;52.968;5.974;2023-02-21T09:12:12;9.70;99.90
52107;DHT22;38105;52.968;5.974;2023-02-21T09:14:39;10.00;99.90
52107;DHT22;38105;52.968;5.974;2023-02-21T09:17:07;9.90;99.90
52107;DHT22;38105;52.968;5.974;2023-02-21T09:19:33;10.00;99.90
52107;DHT22;38105;52.968;5.974;2023-02-21T09:21:59;9.90;99.90
52107;DHT22;38105;52.968;5.974;2023-02-21T09:24:26;10.00;99.90
52107;DHT22;38105;52.968;5.974;2023-02-21T09:26:57;9.90;99.90
52107;DHT22;38105;52.968;5.974;2023-02-21T09:29:25;9.90;99.90
52107;DHT22;38105;52.968;5.974;2023-02-21T09:31:51;9.90;99.90
52107;DHT22;38105;52.968;5.974;2023-02-21T09:34:17;9.90;99.90
52107;DHT22;38105;52.968;5.974;2023-02-21T09:36:43;9.90;99.90
52107;DHT22;38105;52.968;5.974;2023-02-21T09:39:09;9.90;99.90
52107;DHT22;38105;52.968;5.974;2023-02-21T09:41:36;10.00;99.90
52107;DHT22;38105;52.968;5.974;2023-02-21T09:44:03;10.10;99.90
52107;DHT22;38105;52.968;5.974;2023-02-21T09:46:42;9.80;99.90
52107;DHT22;38105;52.968;5.974;2023-02-21T09:49:25;10.00;99.90
52107;DHT22;38105;52.968;5.974;2023-02-21T09:51:54;9.90;99.90
52107;DHT22;38105;52.968;5.974;2023-02-21T09:54:38;10.00;99.90
52107;DHT22;38105;52.968;5.974;2023-02-21T09:57:11;10.00;99.90
52107;DHT22;38105;52.968;5.974;2023-02-21T09:59:38;10.10;99.90
52107;DHT22;38105;52.968;5.974;2023-02-21T10:02:42;10.20;99.90
52107;DHT22;38105;52.968;5.974;2023-02-21T10:05:25;9.90;99.90
52107;DHT22;38105;52.968;5.974;2023-02-21T10:08:05;10.10;99.90
52107;DHT22;38105;52.968;5.974;2023-02-21T10:10:47;10.20;99.90
52107;DHT22;38105;52.968;5.974;2023-02-21T10:16:11;10.10;99.90
52107;DHT22;38105;52.968;5.974;2023-02-21T10:19:06;10.10;99.90
52107;DHT22;38105;52.968;5.974;2023-02-21T10:21:45;10.10;99.90
52107;DHT22;38105;52.968;5.974;2023-02-21T10:24:13;10.20;99.90
52107;DHT22;38105;52.968;5.974;2023-02-21T10:26:45;10.20;99.90
52107;DHT22;38105;52.968;5.974;2023-02-21T10:29:21;10.40;99.90
52107;DHT22;38105;52.968;5.974;2023-02-21T10:31:51;10.30;99.90
52107;DHT22;38105;52.968;5.974;2023-02-21T10:34:27;10.30;99.90
52107;DHT22;38105;52.968;5.974;2023-02-21T10:37:01;10.30;99.90
52107;DHT22;38105;52.968;5.974;2023-02-21T10:39:42;10.30;99.90
52107;DHT22;38105;52.968;5.974;2023-02-21T10:42:19;10.40;99.90
52107;DHT22;38105;52.968;5.974;2023-02-21T10:44:52;10.40;99.90
52107;DHT22;38105;52.968;5.974;2023-02-21T10:47:22;10.30;99.90
52107;DHT22;38105;52.968;5.974;2023-02-21T10:50:08;10.30;99.90
52107;DHT22;38105;52.968;5.974;2023-02-21T10:52:37;10.30;99.90
52107;DHT22;38105;52.968;5.974;2023-02-21T10:55:19;10.40;99.90
52107;DHT22;38105;52.968;5.974;2023-02-21T10:57:49;10.40;99.90
52107;DHT22;38105;52.968;5.974;2023-02-21T11:00:34;10.30;99.90
52107;DHT22;38105;52.968;5.974;2023-02-21T11:03:26;10.40;99.90
52107;DHT22;38105;52.968;5.974;2023-02-21T11:05:56;10.40;99.90
52107;DHT22;38105;52.968;5.974;2023-02-21T11:08:42;10.40;99.90
52107;DHT22;38105;52.968;5.974;2023-02-21T11:11:08;10.40;99.90
52107;DHT22;38105;52.968;5.974;2023-02-21T11:13:34;10.20;99.90
52107;DHT22;38105;52.968;5.974;2023-02-21T11:16:18;10.30;99.90
52107;DHT22;38105;52.968;5.974;2023-02-21T11:19:02;10.20;99.90
52107;DHT22;38105;52.968;5.974;2023-02-21T11:21:28;10.20;99.90
52107;DHT22;38105;52.968;5.974;2023-02-21T11:26:28;10.30;99.90
52107;DHT22;38105;52.968;5.974;2023-02-21T11:29:16;10.20;99.90
52107;DHT22;38105;52.968;5.974;2023-02-21T11:31:43;10.40;99.90
52107;DHT22;38105;52.968;5.974;2023-02-21T11:34:12;10.30;99.90
52107;DHT22;38105;52.968;5.974;2023-02-21T11:36:40;10.20;99.90
52107;DHT22;38105;52.968;5.974;2023-02-21T11:39:16;10.30;99.90
52107;DHT22;38105;52.968;5.974;2023-02-21T11:41:57;10.20;99.90
52107;DHT22;38105;52.968;5.974;2023-02-21T11:50:05;10.30;99.90
52107;DHT22;38105;52.968;5.974;2023-02-21T11:52:37;10.30;99.90
52107;DHT22;38105;52.968;5.974;2023-02-21T11:55:13;10.30;99.90
52107;DHT22;38105;52.968;5.974;2023-02-21T12:03:30;10.40;99.90
52107;DHT22;38105;52.968;5.974;2023-02-21T12:06:04;10.40;99.90
52107;DHT22;38105;52.968;5.974;2023-02-21T12:08:54;10.20;99.90
52107;DHT22;38105;52.968;5.974;2023-02-21T12:14:03;10.20;99.90
52107;DHT22;38105;52.968;5.974;2023-02-21T12:22:10;10.10;99.90
52107;DHT22;38105;52.968;5.974;2023-02-21T12:25:02;10.20;99.90
52107;DHT22;38105;52.968;5.974;2023-02-21T12:30:08;10.10;99.90
52107;DHT22;38105;52.968;5.974;2023-02-21T12:32:57;10.20;99.90
52107;DHT22;38105;52.968;5.974;2023-02-21T12:46:29;10.10;99.90
52107;DHT22;38105;52.968;5.974;2023-02-21T12:49:09;10.00;99.90
52107;DHT22;38105;52.968;5.974;2023-02-21T12:51:41;10.20;99.90
52107;DHT22;38105;52.968;5.974;2023-02-21T12:54:19;10.10;99.90
52107;DHT22;38105;52.968;5.974;2023-02-21T12:56:58;10.00;99.90
52107;DHT22;38105;52.968;5.974;2023-02-21T13:02:18;10.00;99.90
52107;DHT22;38105;52.968;5.974;2023-02-21T13:05:02;10.10;99.90
52107;DHT22;38105;52.968;5.974;2023-02-21T13:10:23;10.20;99.90
52107;DHT22;38105;52.968;5.974;2023-02-21T13:13:01;10.00;99.90
52107;DHT22;38105;52.968;5.974;2023-02-21T13:15:30;10.00;99.90
52107;DHT22;38105;52.968;5.974;2023-02-21T13:20:23;9.90;99.90
52107;DHT22;38105;52.968;5.974;2023-02-21T13:22:50;9.90;99.90
52107;DHT22;38105;52.968;5.974;2023-02-21T13:25:42;10.20;99.90
52107;DHT22;38105;52.968;5.974;2023-02-21T13:28:30;10.10;99.90
52107;DHT22;38105;52.968;5.974;2023-02-21T13:31:02;10.10;99.90
52107;DHT22;38105;52.968;5.974;2023-02-21T13:33:39;10.10;99.90
52107;DHT22;38105;52.968;5.974;2023-02-21T13:39:03;10.00;99.90
52107;DHT22;38105;52.968;5.974;2023-02-21T13:41:33;9.90;99.90
52107;DHT22;38105;52.968;5.974;2023-02-21T13:44:04;10.10;99.90
52107;DHT22;38105;52.968;5.974;2023-02-21T13:49:36;9.70;99.90
52107;DHT22;38105;52.968;5.974;2023-02-21T14:13:46;10.00;99.90
52107;DHT22;38105;52.968;5.974;2023-02-21T14:21:29;10.00;99.90
52107;DHT22;38105;52.968;5.974;2023-02-21T14:24:00;9.70;99.90
52107;DHT22;38105;52.968;5.974;2023-02-21T14:39:46;9.90;99.90
52107;DHT22;38105;52.968;5.974;2023-02-21T14:45:22;9.70;99.90
52107;DHT22;38105;52.968;5.974;2023-02-21T14:47:51;9.70;99.90
52107;DHT22;38105;52.968;5.974;2023-02-21T15:01:55;9.60;99.90
52107;DHT22;38105;52.968;5.974;2023-02-21T15:10:13;9.70;99.90
52107;DHT22;38105;52.968;5.974;2023-02-21T15:13:05;9.60;99.90
52107;DHT22;38105;52.968;5.974;2023-02-21T15:15:40;9.70;99.90
52107;DHT22;38105;52.968;5.974;2023-02-21T15:21:15;9.80;99.90
52107;DHT22;38105;52.968;5.974;2023-02-21T15:23:46;9.60;99.90
52107;DHT22;38105;52.968;5.974;2023-02-21T15:26:26;9.70;99.90
52107;DHT22;38105;52.968;5.974;2023-02-21T15:31:53;9.60;99.90
52107;DHT22;38105;52.968;5.974;2023-02-21T15:34:29;9.70;99.90
52107;DHT22;38105;52.968;5.974;2023-02-21T15:37:21;9.40;99.90
52107;DHT22;38105;52.968;5.974;2023-02-21T15:39:54;9.70;99.90
52107;DHT22;38105;52.968;5.974;2023-02-21T15:42:21;9.40;99.90
52107;DHT22;38105;52.968;5.974;2023-02-21T15:44:58;9.60;99.90
52107;DHT22;38105;52.968;5.974;2023-02-21T15:47:26;9.60;99.90
52107;DHT22;38105;52.968;5.974;2023-02-21T15:50:01;9.70;99.90
52107;DHT22;38105;52.968;5.974;2023-02-21T15:52:34;9.60;99.90
52107;DHT22;38105;52.968;5.974;2023-02-21T16:00:34;9.60;99.90
52107;DHT22;38105;52.968;5.974;2023-02-21T16:03:35;9.60;99.90
52107;DHT22;38105;52.968;5.974;2023-02-21T16:08:59;9.20;99.90
52107;DHT22;38105;52.968;5.974;2023-02-21T16:16:44;9.40;99.90
52107;DHT22;38105;52.968;5.974;2023-02-21T16:19:11;9.60;99.90
52107;DHT22;38105;52.968;5.974;2023-02-21T16:21:36;9.50;99.90
52107;DHT22;38105;52.968;5.974;2023-02-21T16:24:33;9.40;99.90
52107;DHT22;38105;52.968;5.974;2023-02-21T16:27:10;9.50;99.90
52107;DHT22;38105;52.968;5.974;2023-02-21T16:29:36;9.10;99.90
52107;DHT22;38105;52.968;5.974;2023-02-21T16:32:02;9.40;99.90
52107;DHT22;38105;52.968;5.974;2023-02-21T16:34:30;9.10;99.90
52107;DHT22;38105;52.968;5.974;2023-02-21T16:37:01;9.50;99.90
52107;DHT22;38105;52.968;5.974;2023-02-21T16:39:28;9.40;99.90
52107;DHT22;38105;52.968;5.974;2023-02-21T16:41:55;9.30;99.90
52107;DHT22;38105;52.968;5.974;2023-02-21T16:44:21;9.50;99.90
52107;DHT22;38105;52.968;5.974;2023-02-21T16:46:50;9.10;99.90
52107;DHT22;38105;52.968;5.974;2023-02-21T16:49:16;9.10;99.90
52107;DHT22;38105;52.968;5.974;2023-02-21T16:51:42;9.20;99.90
52107;DHT22;38105;52.968;5.974;2023-02-21T16:54:13;9.40;99.90
52107;DHT22;38105;52.968;5.974;2023-02-21T16:56:42;9.10;99.90
52107;DHT22;38105;52.968;5.974;2023-02-21T16:59:11;9.20;99.90
52107;DHT22;38105;52.968;5.974;2023-02-21T17:01:37;9.40;99.90
52107;DHT22;38105;52.968;5.974;2023-02-21T17:04:08;9.00;99.90
52107;DHT22;38105;52.968;5.974;2023-02-21T17:06:34;9.20;99.90
52107;DHT22;38105;52.968;5.974;2023-02-21T17:09:00;9.30;99.90
52107;DHT22;38105;52.968;5.974;2023-02-21T17:11:25;9.30;99.90
52107;DHT22;38105;52.968;5.974;2023-02-21T17:13:51;9.40;99.90
52107;DHT22;38105;52.968;5.974;2023-02-21T17:16:17;9.40;99.90
52107;DHT22;38105;52.968;5.974;2023-02-21T17:18:44;8.90;99.90
52107;DHT22;38105;52.968;5.974;2023-02-21T17:21:09;9.00;99.90
52107;DHT22;38105;52.968;5.974;2023-02-21T17:23:36;8.90;99.90
52107;DHT22;38105;52.968;5.974;2023-02-21T17:26:01;9.30;99.90
52107;DHT22;38105;52.968;5.974;2023-02-21T17:28:28;9.30;99.90
52107;DHT22;38105;52.968;5.974;2023-02-21T17:30:54;9.00;99.90
52107;DHT22;38105;52.968;5.974;2023-02-21T17:33:20;9.30;99.90
52107;DHT22;38105;52.968;5.974;2023-02-21T17:35:46;9.10;99.90
52107;DHT22;38105;52.968;5.974;2023-02-21T17:38:12;9.00;99.90
52107;DHT22;38105;52.968;5.974;2023-02-21T17:40:37;8.90;99.90
52107;DHT22;38105;52.968;5.974;2023-02-21T17:43:03;8.90;99.90
52107;DHT22;38105;52.968;5.974;2023-02-21T17:45:33;8.90;99.90
52107;DHT22;38105;52.968;5.974;2023-02-21T17:48:03;9.30;99.90
52107;DHT22;38105;52.968;5.974;2023-02-21T17:50:30;8.80;99.90
52107;DHT22;38105;52.968;5.974;2023-02-21T17:52:55;8.80;99.90
52107;DHT22;38105;52.968;5.974;2023-02-21T17:55:23;9.20;99.90
52107;DHT22;38105;52.968;5.974;2023-02-21T17:57:51;8.90;99.90
52107;DHT22;38105;52.968;5.974;2023-02-21T18:00:27;9.00;99.90
52107;DHT22;38105;52.968;5.974;2023-02-21T18:02:54;8.90;99.90
52107;DHT22;38105;52.968;5.974;2023-02-21T18:05:21;9.00;99.90
52107;DHT22;38105;52.968;5.974;2023-02-21T18:07:48;9.30;99.90
52107;DHT22;38105;52.968;5.974;2023-02-21T18:10:15;8.90;99.90
52107;DHT22;38105;52.968;5.974;2023-02-21T18:12:41;9.30;99.90
52107;DHT22;38105;52.968;5.974;2023-02-21T18:15:07;8.90;99.90
52107;DHT22;38105;52.968;5.974;2023-02-21T18:17:35;9.20;99.90
52107;DHT22;38105;52.968;5.974;2023-02-21T18:20:00;9.10;99.90
52107;DHT22;38105;52.968;5.974;2023-02-21T18:22:29;8.90;99.90
52107;DHT22;38105;52.968;5.974;2023-02-21T18:24:54;8.90;99.90
52107;DHT22;38105;52.968;5.974;2023-02-21T18:27:20;9.20;99.90
52107;DHT22;38105;52.968;5.974;2023-02-21T18:29:46;8.90;99.90
52107;DHT22;38105;52.968;5.974;2023-02-21T18:32:11;8.70;99.90
52107;DHT22;38105;52.968;5.974;2023-02-21T18:34:37;8.70;99.90
52107;DHT22;38105;52.968;5.974;2023-02-21T18:37:03;9.10;99.90
52107;DHT22;38105;52.968;5.974;2023-02-21T18:39:29;8.80;99.90
52107;DHT22;38105;52.968;5.974;2023-02-21T18:41:54;9.10;99.90
52107;DHT22;38105;52.968;5.974;2023-02-21T18:44:20;9.00;99.90
52107;DHT22;38105;52.968;5.974;2023-02-21T18:46:50;8.90;99.90
52107;DHT22;38105;52.968;5.974;2023-02-21T18:49:18;8.60;99.90
52107;DHT22;38105;52.968;5.974;2023-02-21T18:51:44;8.70;99.90
52107;DHT22;38105;52.968;5.974;2023-02-21T18:54:10;8.80;99.90
52107;DHT22;38105;52.968;5.974;2023-02-21T18:56:35;8.70;99.90
52107;DHT22;38105;52.968;5.974;2023-02-21T18:59:01;8.90;99.90